createdAt,value
2018-12-30T00:02:03.155Z,0.90
2018-12-30T00:04:33.611Z,0.90
2018-12-30T00:07:02.917Z,0.90
2018-12-30T00:09:32.573Z,0.90
2018-12-30T00:12:02.242Z,0.90
2018-12-30T00:14:31.861Z,1.00
2018-12-30T00:17:01.139Z,1.00
2018-12-30T00:19:31.492Z,1.00
2018-12-30T00:22:01.474Z,1.00
2018-12-30T00:24:31.456Z,1.10
2018-12-30T00:27:01.425Z,1.10
2018-12-30T00:29:31.198Z,1.10
2018-12-30T00:32:00.929Z,1.10
2018-12-30T00:34:30.527Z,1.20
2018-12-30T00:37:00.506Z,1.20
2018-12-30T00:39:30.196Z,1.20
2018-12-30T00:41:59.591Z,1.30
2018-12-30T00:44:29.410Z,1.30
2018-12-30T00:46:59.362Z,1.30
2018-12-30T00:49:29.081Z,1.30
2018-12-30T00:51:58.596Z,1.30
2018-12-30T00:54:28.574Z,1.30
2018-12-30T00:56:58.461Z,1.30
2018-12-30T00:59:28.210Z,1.30
2018-12-30T01:01:58.340Z,1.40
2018-12-30T01:04:28.500Z,1.40
2018-12-30T01:06:58.426Z,1.40
2018-12-30T01:09:28.347Z,1.40
2018-12-30T01:11:58.439Z,1.50
2018-12-30T01:14:28.352Z,1.50
2018-12-30T01:16:58.160Z,1.60
2018-12-30T01:19:27.552Z,1.60
2018-12-30T01:21:57.530Z,1.60
2018-12-30T01:24:26.762Z,1.70
2018-12-30T01:26:56.634Z,1.70
2018-12-30T01:29:26.358Z,1.80
2018-12-30T01:31:55.863Z,1.80
2018-12-30T01:34:25.448Z,1.80
2018-12-30T01:36:55.426Z,1.80
2018-12-30T01:39:25.173Z,1.80
2018-12-30T01:41:54.387Z,1.80
2018-12-30T01:44:23.243Z,1.80
2018-12-30T01:46:53.097Z,1.80
2018-12-30T01:49:22.470Z,1.80
2018-12-30T01:51:52.020Z,1.90
2018-12-30T01:54:21.865Z,1.90
2018-12-30T01:56:51.574Z,1.90
2018-12-30T01:59:21.630Z,1.90
2018-12-30T02:01:51.483Z,1.90
2018-12-30T02:04:21.221Z,1.90
2018-12-30T02:06:50.653Z,1.90
2018-12-30T02:09:20.175Z,2.00
2018-12-30T02:11:49.569Z,2.00
2018-12-30T02:14:19.110Z,2.00
2018-12-30T02:16:48.536Z,2.00
2018-12-30T02:19:18.237Z,2.00
2018-12-30T02:21:47.816Z,2.00
2018-12-30T02:24:17.605Z,2.00
2018-12-30T02:26:47.412Z,2.00
2018-12-30T02:29:17.275Z,1.90
2018-12-30T02:31:47.166Z,1.90
2018-12-30T02:34:16.911Z,1.90
2018-12-30T02:36:46.617Z,1.90
2018-12-30T02:39:16.437Z,1.90
2018-12-30T02:41:46.050Z,2.00
2018-12-30T02:44:15.355Z,2.00
2018-12-30T02:46:44.997Z,2.00
2018-12-30T02:49:14.102Z,2.10
2018-12-30T02:51:50.235Z,2.00
2018-12-30T02:54:15.256Z,2.10
2018-12-30T02:56:44.965Z,2.10
2018-12-30T02:59:15.093Z,2.10
2018-12-30T03:01:45.006Z,2.10
2018-12-30T03:04:15.419Z,2.20
2018-12-30T03:06:45.000Z,2.20
2018-12-30T03:09:14.229Z,2.20
2018-12-30T03:11:43.716Z,2.20
2018-12-30T03:14:13.686Z,2.20
2018-12-30T03:16:43.003Z,2.20
2018-12-30T03:19:12.777Z,2.20
2018-12-30T03:21:42.438Z,2.20
2018-12-30T03:24:12.090Z,2.30
2018-12-30T03:26:41.775Z,2.30
2018-12-30T03:29:10.957Z,2.30
2018-12-30T03:31:40.431Z,2.30
2018-12-30T03:34:10.321Z,2.30
2018-12-30T03:36:39.971Z,2.30
2018-12-30T03:39:09.491Z,2.30
2018-12-30T03:41:39.065Z,2.30
2018-12-30T03:44:08.902Z,2.30
2018-12-30T03:46:38.602Z,2.30
2018-12-30T03:49:07.933Z,2.20
2018-12-30T03:51:37.561Z,2.20
2018-12-30T03:54:07.234Z,2.20
2018-12-30T03:56:36.517Z,2.20
2018-12-30T03:59:05.893Z,2.20
2018-12-30T04:01:35.379Z,2.30
2018-12-30T04:04:04.718Z,2.20
2018-12-30T04:06:34.167Z,2.20
2018-12-30T04:09:05.367Z,2.20
2018-12-30T04:11:35.077Z,2.10
2018-12-30T04:14:04.928Z,2.10
2018-12-30T04:16:34.266Z,2.10
2018-12-30T04:19:04.149Z,2.10
2018-12-30T04:21:33.806Z,2.10
2018-12-30T04:24:03.280Z,2.10
2018-12-30T04:26:33.002Z,2.10
2018-12-30T04:29:02.499Z,2.10
2018-12-30T04:31:32.257Z,2.00
2018-12-30T04:34:01.645Z,2.10
2018-12-30T04:36:31.599Z,2.00
2018-12-30T04:39:01.341Z,2.00
2018-12-30T04:41:31.044Z,2.10
2018-12-30T04:44:00.517Z,2.10
2018-12-30T04:46:30.054Z,2.10
2018-12-30T04:48:59.138Z,2.10
2018-12-30T04:51:28.607Z,2.00
2018-12-30T04:53:58.238Z,2.00
2018-12-30T04:56:27.649Z,2.00
2018-12-30T04:58:56.928Z,2.00
2018-12-30T05:01:26.783Z,2.00
2018-12-30T05:03:56.502Z,2.00
2018-12-30T05:06:26.471Z,2.10
2018-12-30T05:08:56.419Z,2.10
2018-12-30T05:11:26.369Z,2.10
2018-12-30T05:13:56.702Z,2.10
2018-12-30T05:16:26.364Z,2.10
2018-12-30T05:18:56.056Z,2.10
2018-12-30T05:21:25.568Z,2.10
2018-12-30T05:23:55.334Z,2.10
2018-12-30T05:26:25.052Z,2.10
2018-12-30T05:28:54.635Z,2.10
2018-12-30T05:31:24.208Z,2.00
2018-12-30T05:33:53.462Z,2.10
2018-12-30T05:36:23.034Z,2.00
2018-12-30T05:38:52.536Z,2.00
2018-12-30T05:41:23.059Z,2.00
2018-12-30T05:43:52.740Z,2.10
2018-12-30T05:46:22.191Z,2.00
2018-12-30T05:48:51.753Z,2.10
2018-12-30T05:51:21.153Z,2.10
2018-12-30T05:53:50.826Z,2.10
2018-12-30T05:56:21.154Z,2.00
2018-12-30T05:58:50.866Z,2.10
2018-12-30T06:01:20.293Z,2.10
2018-12-30T06:03:49.688Z,2.10
2018-12-30T06:06:19.054Z,2.10
2018-12-30T06:08:48.333Z,2.10
2018-12-30T06:11:18.102Z,2.10
2018-12-30T06:13:48.092Z,2.10
2018-12-30T06:16:17.384Z,2.10
2018-12-30T06:18:46.571Z,2.10
2018-12-30T06:21:16.323Z,2.10
2018-12-30T06:23:45.776Z,2.10
2018-12-30T06:26:15.505Z,2.10
2018-12-30T06:28:46.660Z,2.10
2018-12-30T06:31:16.011Z,2.10
2018-12-30T06:33:45.951Z,2.10
2018-12-30T06:36:15.778Z,2.10
2018-12-30T06:38:45.426Z,2.10
2018-12-30T06:41:14.918Z,2.10
2018-12-30T06:43:44.716Z,2.10
2018-12-30T06:46:13.944Z,2.10
2018-12-30T06:48:43.715Z,2.10
2018-12-30T06:51:12.877Z,2.10
2018-12-30T06:53:42.588Z,2.10
2018-12-30T06:56:11.992Z,2.10
2018-12-30T06:58:41.910Z,2.10
2018-12-30T07:01:11.473Z,2.10
2018-12-30T07:03:41.432Z,2.10
2018-12-30T07:06:11.398Z,2.10
2018-12-30T07:08:41.131Z,2.10
2018-12-30T07:11:10.514Z,2.10
2018-12-30T07:13:40.504Z,2.10
2018-12-30T07:16:10.635Z,2.10
2018-12-30T07:18:40.251Z,2.00
2018-12-30T07:21:10.016Z,2.00
2018-12-30T07:23:39.564Z,2.00
2018-12-30T07:26:08.890Z,2.00
2018-12-30T07:28:38.397Z,2.00
2018-12-30T07:31:07.992Z,2.00
2018-12-30T07:33:37.577Z,2.00
2018-12-30T07:36:07.076Z,2.00
2018-12-30T07:38:36.409Z,2.00
2018-12-30T07:41:06.096Z,1.90
2018-12-30T07:43:35.555Z,2.00
2018-12-30T07:46:29.578Z,2.00
2018-12-30T07:48:55.142Z,2.00
2018-12-30T07:51:28.939Z,2.00
2018-12-30T07:54:05.416Z,2.00
2018-12-30T07:56:46.859Z,2.00
2018-12-30T07:59:16.525Z,2.00
2018-12-30T08:01:52.284Z,2.10
2018-12-30T08:04:24.500Z,2.10
2018-12-30T08:06:53.890Z,2.10
2018-12-30T08:09:25.183Z,2.10
2018-12-30T08:12:04.536Z,2.10
2018-12-30T08:14:33.613Z,2.10
2018-12-30T08:17:03.457Z,2.10
2018-12-30T08:19:33.148Z,2.10
2018-12-30T08:22:02.747Z,2.10
2018-12-30T08:24:31.836Z,2.20
2018-12-30T08:27:07.519Z,2.20
2018-12-30T08:29:36.714Z,2.20
2018-12-30T08:32:06.509Z,2.30
2018-12-30T08:34:35.931Z,2.30
2018-12-30T08:37:05.573Z,2.40
2018-12-30T08:39:37.398Z,2.40
2018-12-30T08:42:07.240Z,2.40
2018-12-30T08:44:37.075Z,2.50
2018-12-30T08:47:06.991Z,2.50
2018-12-30T08:49:36.521Z,2.50
2018-12-30T08:52:05.983Z,2.50
2018-12-30T08:54:35.037Z,2.60
2018-12-30T08:57:04.606Z,2.60
2018-12-30T08:59:33.660Z,2.60
2018-12-30T09:02:07.201Z,2.60
2018-12-30T09:07:38.109Z,2.70
2018-12-30T09:10:23.498Z,2.70
2018-12-30T09:12:52.949Z,2.80
2018-12-30T09:15:22.476Z,2.80
2018-12-30T09:17:50.931Z,2.80
2018-12-30T09:20:19.511Z,2.80
2018-12-30T09:22:48.060Z,2.80
2018-12-30T09:28:42.283Z,2.80
2018-12-30T09:31:10.709Z,2.80
2018-12-30T09:33:39.209Z,2.90
2018-12-30T09:36:07.718Z,2.90
2018-12-30T09:38:36.142Z,2.90
2018-12-30T09:41:04.594Z,2.90
2018-12-30T09:43:33.045Z,3.00
2018-12-30T09:46:01.607Z,2.90
2018-12-30T09:48:43.095Z,2.90
2018-12-30T09:51:14.082Z,2.90
2018-12-30T09:53:49.969Z,3.00
2018-12-30T09:56:18.612Z,3.00
2018-12-30T09:58:47.166Z,3.00
2018-12-30T10:01:15.662Z,3.00
2018-12-30T10:06:53.595Z,2.90
2018-12-30T10:09:26.358Z,3.00
2018-12-30T10:12:19.833Z,2.90
2018-12-30T10:14:51.589Z,2.90
2018-12-30T10:17:27.683Z,3.00
2018-12-30T10:20:04.495Z,3.00
2018-12-30T10:22:44.662Z,3.00
2018-12-30T10:25:14.616Z,3.10
2018-12-30T10:27:46.759Z,3.10
2018-12-30T10:30:17.690Z,3.10
2018-12-30T10:32:48.553Z,3.10
2018-12-30T10:35:18.004Z,3.00
2018-12-30T10:37:49.056Z,3.00
2018-12-30T10:40:21.780Z,3.00
2018-12-30T10:42:54.065Z,3.00
2018-12-30T10:45:26.529Z,3.00
2018-12-30T10:48:16.296Z,3.10
2018-12-30T10:50:47.167Z,3.10
2018-12-30T10:53:17.331Z,3.10
2018-12-30T10:55:48.096Z,3.10
2018-12-30T10:58:18.991Z,3.20
2018-12-30T11:00:48.487Z,3.20
2018-12-30T11:03:19.539Z,3.20
2018-12-30T11:05:50.353Z,3.20
2018-12-30T11:08:28.551Z,3.20
2018-12-30T11:11:00.487Z,3.20
2018-12-30T11:13:32.688Z,3.10
2018-12-30T11:16:05.174Z,3.20
2018-12-30T11:21:40.499Z,3.20
2018-12-30T11:24:13.412Z,3.20
2018-12-30T11:26:45.520Z,3.20
2018-12-30T11:29:17.222Z,3.20
2018-12-30T11:31:48.485Z,3.30
2018-12-30T11:34:20.497Z,3.30
2018-12-30T11:36:52.187Z,3.20
2018-12-30T11:39:25.001Z,3.20
2018-12-30T11:41:58.673Z,3.20
2018-12-30T11:44:30.284Z,3.20
2018-12-30T11:47:02.617Z,3.20
2018-12-30T11:49:34.174Z,3.20
2018-12-30T11:52:06.401Z,3.20
2018-12-30T11:54:39.328Z,3.20
2018-12-30T11:57:09.980Z,3.20
2018-12-30T11:59:39.895Z,3.20
2018-12-30T12:02:11.996Z,3.20
2018-12-30T12:04:42.970Z,3.20
2018-12-30T12:07:14.551Z,3.20
2018-12-30T12:09:45.084Z,3.20
2018-12-30T12:12:15.949Z,3.20
2018-12-30T12:14:47.142Z,3.30
2018-12-30T12:17:18.196Z,3.30
2018-12-30T12:19:49.923Z,3.40
2018-12-30T12:22:20.341Z,3.40
2018-12-30T12:24:51.035Z,3.40
2018-12-30T12:27:20.241Z,3.40
2018-12-30T12:29:51.667Z,3.40
2018-12-30T12:32:23.465Z,3.40
2018-12-30T12:34:55.250Z,3.40
2018-12-30T12:37:26.718Z,3.40
2018-12-30T12:39:59.323Z,3.40
2018-12-30T12:42:29.239Z,3.40
2018-12-30T12:45:01.229Z,3.40
2018-12-30T12:47:33.726Z,3.40
2018-12-30T12:50:05.655Z,3.40
2018-12-30T12:52:35.381Z,3.40
2018-12-30T12:55:07.739Z,3.50
2018-12-30T12:57:36.770Z,3.50
2018-12-30T13:00:10.241Z,3.40
2018-12-30T13:02:42.679Z,3.40
2018-12-30T13:05:12.384Z,3.40
2018-12-30T13:07:42.578Z,3.50
2018-12-30T13:10:13.602Z,3.50
2018-12-30T13:12:46.289Z,3.50
2018-12-30T13:15:17.833Z,3.60
2018-12-30T13:17:46.326Z,3.60
2018-12-30T13:20:16.218Z,3.70
2018-12-30T13:22:46.580Z,3.70
2018-12-30T13:25:16.419Z,3.70
2018-12-30T13:27:46.633Z,3.70
2018-12-30T13:30:16.738Z,3.80
2018-12-30T13:32:46.211Z,3.80
2018-12-30T13:35:15.443Z,3.80
2018-12-30T13:37:45.407Z,3.80
2018-12-30T13:40:14.841Z,3.80
2018-12-30T13:42:44.975Z,3.80
2018-12-30T13:45:15.129Z,3.80
2018-12-30T13:47:45.007Z,3.80
2018-12-30T13:50:14.950Z,3.80
2018-12-30T13:52:45.497Z,3.80
2018-12-30T13:55:17.463Z,3.80
2018-12-30T13:57:47.670Z,3.70
2018-12-30T14:00:18.628Z,3.80
2018-12-30T14:02:49.501Z,3.80
2018-12-30T14:05:20.980Z,3.80
2018-12-30T14:07:51.320Z,3.80
2018-12-30T14:10:23.396Z,3.80
2018-12-30T14:12:55.609Z,3.80
2018-12-30T14:15:27.521Z,3.80
2018-12-30T14:17:58.693Z,3.80
2018-12-30T14:20:29.789Z,3.80
2018-12-30T14:22:59.863Z,3.70
2018-12-30T14:25:30.615Z,3.70
2018-12-30T14:27:59.798Z,3.70
2018-12-30T14:30:29.828Z,3.70
2018-12-30T14:33:02.593Z,3.70
2018-12-30T14:35:34.558Z,3.70
2018-12-30T14:38:08.828Z,3.70
2018-12-30T14:40:38.193Z,3.70
2018-12-30T14:43:08.890Z,3.70
2018-12-30T14:45:39.841Z,3.70
2018-12-30T14:48:10.537Z,3.60
2018-12-30T14:50:40.606Z,3.70
2018-12-30T14:53:18.931Z,3.70
2018-12-30T14:55:45.195Z,3.70
2018-12-30T14:58:14.190Z,3.70
2018-12-30T15:00:47.798Z,3.70
2018-12-30T15:03:19.600Z,3.70
2018-12-30T15:05:52.427Z,3.70
2018-12-30T15:08:25.635Z,3.70
2018-12-30T15:10:56.789Z,3.70
2018-12-30T15:13:27.237Z,3.70
2018-12-30T15:15:58.550Z,3.70
2018-12-30T15:18:29.646Z,3.70
2018-12-30T15:21:01.406Z,3.70
2018-12-30T15:23:33.515Z,3.60
2018-12-30T15:26:05.264Z,3.70
2018-12-30T15:28:35.663Z,3.70
2018-12-30T15:31:04.934Z,3.70
2018-12-30T15:33:35.044Z,3.70
2018-12-30T15:36:05.564Z,3.70
2018-12-30T15:38:35.528Z,3.70
2018-12-30T15:41:05.798Z,3.70
2018-12-30T15:43:36.487Z,3.70
2018-12-30T15:46:06.588Z,3.70
2018-12-30T15:48:36.430Z,3.60
2018-12-30T15:51:06.898Z,3.60
2018-12-30T15:53:36.723Z,3.60
2018-12-30T15:56:05.864Z,3.60
2018-12-30T15:58:34.942Z,3.70
2018-12-30T16:01:03.864Z,3.60
2018-12-30T16:03:33.458Z,3.60
2018-12-30T16:06:03.091Z,3.60
2018-12-30T16:08:32.319Z,3.50
2018-12-30T16:11:02.248Z,3.50
2018-12-30T16:13:32.819Z,3.50
2018-12-30T16:16:02.188Z,3.50
2018-12-30T16:18:32.520Z,3.60
2018-12-30T16:21:02.049Z,3.50
2018-12-30T16:23:32.525Z,3.50
2018-12-30T16:26:02.021Z,3.50
2018-12-30T16:28:31.879Z,3.50
2018-12-30T16:31:01.692Z,3.50
2018-12-30T16:33:31.798Z,3.40
2018-12-30T16:36:01.847Z,3.40
2018-12-30T16:38:31.951Z,3.50
2018-12-30T16:41:06.060Z,3.40
2018-12-30T16:43:38.212Z,3.30
2018-12-30T16:46:08.656Z,3.30
2018-12-30T16:48:41.840Z,3.30
2018-12-30T16:51:11.620Z,3.30
2018-12-30T16:53:43.344Z,3.30
2018-12-30T16:56:12.388Z,3.30
2018-12-30T16:58:43.178Z,3.30
2018-12-30T17:01:13.477Z,3.30
2018-12-30T17:03:45.627Z,3.30
2018-12-30T17:06:15.243Z,3.30
2018-12-30T17:08:44.055Z,3.30
2018-12-30T17:11:13.723Z,3.30
2018-12-30T17:13:44.588Z,3.20
2018-12-30T17:16:15.070Z,3.20
2018-12-30T17:18:44.972Z,3.20
2018-12-30T17:21:14.996Z,3.20
2018-12-30T17:23:47.629Z,3.20
2018-12-30T17:26:17.496Z,3.20
2018-12-30T17:28:46.642Z,3.20
2018-12-30T17:31:17.283Z,3.20
2018-12-30T17:33:48.421Z,3.20
2018-12-30T17:36:20.399Z,3.30
2018-12-30T17:38:51.365Z,3.30
2018-12-30T17:41:23.455Z,3.30
2018-12-30T17:43:53.064Z,3.30
2018-12-30T17:46:22.201Z,3.30
2018-12-30T17:48:53.221Z,3.20
2018-12-30T17:51:23.943Z,3.30
2018-12-30T17:53:54.451Z,3.30
2018-12-30T17:56:23.535Z,3.30
2018-12-30T17:58:54.101Z,3.30
2018-12-30T18:01:25.447Z,3.30
2018-12-30T18:03:58.271Z,3.30
2018-12-30T18:06:30.655Z,3.30
2018-12-30T18:09:02.774Z,3.30
2018-12-30T18:11:33.920Z,3.30
2018-12-30T18:14:04.905Z,3.30
2018-12-30T18:16:37.805Z,3.30
2018-12-30T18:19:09.971Z,3.30
2018-12-30T18:21:40.591Z,3.30
2018-12-30T18:24:13.065Z,3.30
2018-12-30T18:26:44.771Z,3.30
2018-12-30T18:29:15.273Z,3.30
2018-12-30T18:31:46.613Z,3.30
2018-12-30T18:34:17.129Z,3.30
2018-12-30T18:36:47.678Z,3.30
2018-12-30T18:39:19.519Z,3.30
2018-12-30T18:41:51.385Z,3.30
2018-12-30T18:44:23.724Z,3.30
2018-12-30T18:46:54.921Z,3.30
2018-12-30T18:49:27.628Z,3.30
2018-12-30T18:51:59.528Z,3.30
2018-12-30T18:54:29.699Z,3.30
2018-12-30T18:57:01.788Z,3.20
2018-12-30T18:59:33.127Z,3.20
2018-12-30T19:02:04.554Z,3.30
2018-12-30T19:04:36.653Z,3.20
2018-12-30T19:09:55.997Z,3.30
2018-12-30T19:12:26.494Z,3.30
2018-12-30T19:14:58.117Z,3.30
2018-12-30T19:17:29.129Z,3.20
2018-12-30T19:20:12.027Z,3.30
2018-12-30T19:22:46.529Z,3.30
2018-12-30T19:25:15.126Z,3.30
2018-12-30T19:27:45.696Z,3.30
2018-12-30T19:30:15.537Z,3.30
2018-12-30T19:32:44.266Z,3.30
2018-12-30T19:35:16.910Z,3.30
2018-12-30T19:37:47.023Z,3.30
2018-12-30T19:40:17.321Z,3.40
2018-12-30T19:42:48.508Z,3.40
2018-12-30T19:45:17.487Z,3.40
2018-12-30T19:47:47.560Z,3.50
2018-12-30T19:50:17.486Z,3.50
2018-12-30T19:52:45.900Z,3.50
2018-12-30T19:55:15.037Z,3.50
2018-12-30T19:57:45.585Z,3.50
2018-12-30T20:00:14.570Z,3.50
2018-12-30T20:02:44.120Z,3.50
2018-12-30T20:05:14.102Z,3.50
2018-12-30T20:07:43.482Z,3.50
2018-12-30T20:10:12.178Z,3.50
2018-12-30T20:12:42.924Z,3.50
2018-12-30T20:15:12.212Z,3.50
2018-12-30T20:17:41.381Z,3.50
2018-12-30T20:20:12.927Z,3.50
2018-12-30T20:22:43.724Z,3.50
2018-12-30T20:25:14.045Z,3.50
2018-12-30T20:27:42.965Z,3.50
2018-12-30T20:30:12.214Z,3.50
2018-12-30T20:32:42.444Z,3.40
2018-12-30T20:35:11.394Z,3.50
2018-12-30T20:37:41.954Z,3.40
2018-12-30T20:42:58.655Z,3.60
2018-12-30T20:45:27.387Z,3.50
2018-12-30T20:47:58.662Z,3.50
2018-12-30T20:50:28.532Z,3.50
2018-12-30T20:52:59.231Z,3.50
2018-12-30T20:55:30.159Z,3.50
2018-12-30T20:58:00.890Z,3.50
2018-12-30T21:00:30.900Z,3.40
2018-12-30T21:03:07.042Z,3.40
2018-12-30T21:05:39.510Z,3.50
2018-12-30T21:08:08.477Z,3.40
2018-12-30T21:10:40.464Z,3.50
2018-12-30T21:13:12.487Z,3.50
2018-12-30T21:15:42.124Z,3.50
2018-12-30T21:18:11.896Z,3.50
2018-12-30T21:20:43.794Z,3.50
2018-12-30T21:23:13.780Z,3.50
2018-12-30T21:25:45.052Z,3.40
2018-12-30T21:28:14.267Z,3.40
2018-12-30T21:30:44.658Z,3.40
2018-12-30T21:33:14.366Z,3.40
2018-12-30T21:35:46.196Z,3.40
2018-12-30T21:38:15.174Z,3.40
2018-12-30T21:40:45.895Z,3.40
2018-12-30T21:43:15.261Z,3.40
2018-12-30T21:45:43.847Z,3.40
2018-12-30T21:48:12.665Z,3.40
2018-12-30T21:50:42.528Z,3.40
2018-12-30T21:53:13.242Z,3.40
2018-12-30T21:55:42.607Z,3.40
2018-12-30T21:58:11.180Z,3.40
2018-12-30T22:00:40.419Z,3.40
2018-12-30T22:03:09.987Z,3.40
2018-12-30T22:05:41.296Z,3.40
2018-12-30T22:08:10.447Z,3.40
2018-12-30T22:10:40.526Z,3.30
2018-12-30T22:13:12.137Z,3.40
2018-12-30T22:15:42.338Z,3.40
2018-12-30T22:18:12.620Z,3.30
2018-12-30T22:20:43.045Z,3.30
2018-12-30T22:23:13.080Z,3.30
2018-12-30T22:25:43.463Z,3.30
2018-12-30T22:28:12.381Z,3.30
2018-12-30T22:30:43.112Z,3.30
2018-12-30T22:33:11.983Z,3.30
2018-12-30T22:35:41.075Z,3.30
2018-12-30T22:38:11.583Z,3.30
2018-12-30T22:40:40.342Z,3.30
2018-12-30T22:43:14.797Z,3.30
2018-12-30T22:45:44.325Z,3.30
2018-12-30T22:48:13.590Z,3.30
2018-12-30T22:50:42.810Z,3.30
2018-12-30T22:53:14.344Z,3.30
2018-12-30T22:55:43.511Z,3.30
2018-12-30T22:58:12.358Z,3.30
2018-12-30T23:00:43.299Z,3.20
2018-12-30T23:03:14.826Z,3.20
2018-12-30T23:05:44.068Z,3.30
2018-12-30T23:08:14.246Z,3.20
2018-12-30T23:10:45.550Z,3.20
2018-12-30T23:13:19.037Z,3.30
2018-12-30T23:15:53.723Z,3.20
2018-12-30T23:18:23.325Z,3.20
2018-12-30T23:20:58.755Z,3.20
2018-12-30T23:23:32.191Z,3.20
2018-12-30T23:26:06.074Z,3.20
2018-12-30T23:28:40.667Z,3.20
2018-12-30T23:31:16.747Z,3.20
2018-12-30T23:33:48.192Z,3.20
2018-12-30T23:36:28.864Z,3.10
2018-12-30T23:39:08.099Z,3.10
2018-12-30T23:41:45.850Z,3.10
2018-12-30T23:44:21.101Z,3.10
2018-12-30T23:46:57.035Z,3.10
2018-12-30T23:49:25.803Z,3.00
2018-12-30T23:51:58.045Z,3.00
2018-12-30T23:54:31.011Z,3.00
2018-12-30T23:57:04.746Z,3.00
2018-12-30T23:59:37.591Z,3.00
